Detalii statie AGRONOVA [00001CEC]

Toti senzorii

Date Temperatura solului [C]Precipitatii [mm]Voltaj baterie [mV]Leaf Wetness [Min]HC Air temperature [C]HC Relative humidity [%]Punctul de roua [C]
medieminmaxsumaultimatimpmedieminmaxmediemediemin
2020-01-25 15:00:00 0.3 0.3 0.4 0 7254 15.76 15.24 16.01 0 0 0
2020-01-25 16:00:00 0.3 0.2 0.4 0 7176 14.84 13.45 15.96 0 0 0
2020-01-25 17:00:00 0.3 0.2 0.4 0 7030 11.39 9.65 13.15 0 0 0
2020-01-25 18:00:00 0.3 0.2 0.4 0 6834 8.57 7.5 9.97 0 0 0
2020-01-25 19:00:00 0.4 0.3 0.5 0 6668 5.69 4.73 7.27 0 0 0
2020-01-25 20:00:00 0.4 0.4 0.5 0 6532 5.17 4.65 6.35 0 0 0
2020-01-25 21:00:00 0.4 0.4 0.5 0 6502 4.03 3.37 4.6 0 0 0
2020-01-25 22:00:00 0.4 0.4 0.5 0 6494 2.68 1.29 4.67 0.25 0
2020-01-25 23:00:00 0.4 0.4 0.5 0 6484 0.8 -0.46 1.73 0.87 -5.8 0
2020-01-26 00:00:00 0.4 0.4 0.5 0 6474 2.65 2.05 4.01 0.14 0
2020-01-26 01:00:00 0.4 0.4 0.6 0 6474 1.17 -0.67 1.97 4.83 0
2020-01-26 02:00:00 0.5 0.4 0.6 0 6464 -0.29 -1.28 0.66 0 0 0
2020-01-26 03:00:00 0.5 0.4 0.6 0 6464 -0.92 -1.29 -0.3 0 0 0
2020-01-26 04:00:00 0.5 0.4 0.6 0 6454 -1.42 -2.58 -0.84 0 0 0
2020-01-26 05:00:00 0.5 0.5 0.6 0 6454 -1.14 -1.89 -0.49 0 0 0
2020-01-26 06:00:00 0.5 0.5 0.6 0 6454 -1.81 -2.33 -1.37 0 0 0
2020-01-26 07:00:00 0.5 0.4 0.6 0 6444 -1.85 -2.76 -1.13 0 0 0
2020-01-26 08:00:00 0.5 0.5 0.7 0 6434 -3.01 -4.09 -2.09 0 0 0
2020-01-26 09:00:00 0.5 0.5 0.6 0 6660 -1.27 -2.07 -0.02 0 0 0
2020-01-26 10:00:00 0.5 0.4 0.6 0 7148 2.43 0.38 4.35 0 0 0
2020-01-26 11:00:00 0.5 0.4 0.6 0 7264 6.46 4.73 8.09 0 0 0
2020-01-26 12:00:00 0.5 0.4 0.6 0 7254 10.56 8.63 11.95 0 0 0
2020-01-26 13:00:00 0.5 0.5 0.6 0 7254 13.6 12.52 14.37 0 0 0
2020-01-26 14:00:00 0.6 0.5 0.8 0 7254 14.13 13.02 15.24 0 0 0
2020-01-26 15:00:00 1 0.8 1.3 0 7246 14.83 13.81 15.7 0 0 0
2020-01-26 16:00:00 1.4 1.2 1.6 0 7070 13.47 12.43 14.68 0 0 0
2020-01-26 17:00:00 1.7 1.6 1.8 0 6982 11.54 10.11 12.65 0 0 0
2020-01-26 18:00:00 1.8 1.7 2 0 6766 8.78 6.64 9.88 0 0 0
2020-01-26 19:00:00 1.9 1.8 2 0 6630 6.14 5.14 7.33 0 0 0
2020-01-26 20:00:00 1.8 1.7 1.9 0 6512 4.11 3.45 5.4 0 0 0
2020-01-26 21:00:00 1.7 1.7 1.9 0 6494 2.88 2.39 3.58 0 0 0
2020-01-26 22:00:00 1.7 1.6 1.9 0 6484 2.34 1.7 2.88 0 0 0
2020-01-26 23:00:00 1.6 1.6 1.7 0 6484 1.8 1.4 2.29 0 0 0
2020-01-27 00:00:00 1.5 1.5 1.7 0 6474 1.61 1.47 1.83 1.22 -5 0
2020-01-27 01:00:00 1.4 1.3 1.5 0 6474 1.98 1.6 2.35 2.65 -3.6 0
2020-01-27 02:00:00 1.4 1.3 1.6 0 6474 1.03 0.12 1.42 0 0 0
2020-01-27 03:00:00 1.3 1.2 1.6 0 6464 0.5 -0.09 1.07 0 0 0
2020-01-27 04:00:00 1.3 1.1 1.4 0 6454 0.72 0.64 0.88 0 0 0
2020-01-27 05:00:00 1.3 1.2 1.4 0 6454 1.06 0.87 1.22 0 0 0
2020-01-27 06:00:00 1.3 1.2 1.4 0 6454 0.83 0.66 1.08 0 0 0
2020-01-27 07:00:00 1.2 1.2 1.4 0 6454 1.19 0.71 1.62 0 0 0
2020-01-27 08:00:00 1.2 1.2 1.3 0 6454 1.38 1.08 1.68 0 0 0
2020-01-27 09:00:00 1.2 1.2 1.4 0 6522 0.82 -0.2 2.06 0 0 0
2020-01-27 10:00:00 1.2 1.2 1.5 0 6610 3.04 2.3 3.53 0 0 0
2020-01-27 11:00:00 1.3 1.2 1.5 0 6620 3.71 3.42 3.87 0 0 0
2020-01-27 12:00:00 1.5 1.4 1.6 0.2 6650 3.7 3.6 3.81 0 0 0
2020-01-27 13:00:00 1.6 1.5 1.7 1 6630 3.31 3.11 3.65 0 0 0
2020-01-27 14:00:00 1.7 1.6 1.9 1.2 6650 3.42 3.15 3.73 17.79 0